sensor_id;sensor_type;location;lat;lon;timestamp;pressure;altitude;pressure_sealevel;temperature;humidity
18569;BME280;14780;48.316;-1.050;2023-05-18T00:00:26;100060.28;;;24.60;34.93
18569;BME280;14780;48.316;-1.050;2023-05-18T00:03:12;100064.94;;;24.59;35.02
18569;BME280;14780;48.316;-1.050;2023-05-18T00:05:56;100058.06;;;24.57;34.91
18569;BME280;14780;48.316;-1.050;2023-05-18T00:08:47;100053.09;;;24.54;35.07
18569;BME280;14780;48.316;-1.050;2023-05-18T00:11:32;100048.09;;;24.51;35.09
18569;BME280;14780;48.316;-1.050;2023-05-18T00:14:19;100052.16;;;24.48;35.00
18569;BME280;14780;48.316;-1.050;2023-05-18T00:17:03;100051.59;;;24.46;35.16
18569;BME280;14780;48.316;-1.050;2023-05-18T00:19:49;100048.63;;;24.48;35.00
18569;BME280;14780;48.316;-1.050;2023-05-18T00:22:34;100051.94;;;24.50;34.98
18569;BME280;14780;48.316;-1.050;2023-05-18T00:25:19;100043.97;;;24.48;34.92
18569;BME280;14780;48.316;-1.050;2023-05-18T00:28:04;100046.97;;;24.47;34.93
18569;BME280;14780;48.316;-1.050;2023-05-18T00:30:48;100044.47;;;24.45;35.03
18569;BME280;14780;48.316;-1.050;2023-05-18T00:33:34;100045.56;;;24.44;34.93
18569;BME280;14780;48.316;-1.050;2023-05-18T00:36:19;100043.00;;;24.38;35.04
18569;BME280;14780;48.316;-1.050;2023-05-18T00:39:05;100036.72;;;24.37;35.04
18569;BME280;14780;48.316;-1.050;2023-05-18T00:41:50;100044.94;;;24.37;35.10
18569;BME280;14780;48.316;-1.050;2023-05-18T00:44:35;100039.94;;;24.34;35.10
18569;BME280;14780;48.316;-1.050;2023-05-18T00:47:19;100043.19;;;24.31;35.08
18569;BME280;14780;48.316;-1.050;2023-05-18T00:50:05;100043.75;;;24.33;34.98
18569;BME280;14780;48.316;-1.050;2023-05-18T00:52:50;100049.22;;;24.33;35.04
18569;BME280;14780;48.316;-1.050;2023-05-18T00:55:36;100043.19;;;24.31;35.15
18569;BME280;14780;48.316;-1.050;2023-05-18T00:58:21;100040.47;;;24.31;35.05
18569;BME280;14780;48.316;-1.050;2023-05-18T01:01:06;100036.56;;;24.27;35.10
18569;BME280;14780;48.316;-1.050;2023-05-18T01:03:51;100039.25;;;24.22;35.04
18569;BME280;14780;48.316;-1.050;2023-05-18T01:06:40;100030.03;;;24.28;35.05
18569;BME280;14780;48.316;-1.050;2023-05-18T01:09:25;100038.72;;;24.25;34.97
18569;BME280;14780;48.316;-1.050;2023-05-18T01:12:16;100031.09;;;24.27;34.93
18569;BME280;14780;48.316;-1.050;2023-05-18T01:15:09;100031.59;;;24.24;35.01
18569;BME280;14780;48.316;-1.050;2023-05-18T01:24:49;100032.78;;;24.28;34.86
18569;BME280;14780;48.316;-1.050;2023-05-18T01:27:37;100028.03;;;24.24;34.95
18569;BME280;14780;48.316;-1.050;2023-05-18T01:30:26;100029.13;;;24.23;34.96
18569;BME280;14780;48.316;-1.050;2023-05-18T01:33:12;100026.66;;;24.21;34.94
18569;BME280;14780;48.316;-1.050;2023-05-18T01:35:57;100031.78;;;24.18;35.00
18569;BME280;14780;48.316;-1.050;2023-05-18T01:38:42;100021.19;;;24.21;34.85
18569;BME280;14780;48.316;-1.050;2023-05-18T01:41:30;100030.72;;;24.19;34.92
18569;BME280;14780;48.316;-1.050;2023-05-18T01:47:28;100030.47;;;24.20;34.79
18569;BME280;14780;48.316;-1.050;2023-05-18T01:50:18;100024.41;;;24.18;34.83
18569;BME280;14780;48.316;-1.050;2023-05-18T01:53:11;100022.75;;;24.17;34.75
18569;BME280;14780;48.316;-1.050;2023-05-18T01:55:58;100017.81;;;24.14;34.79
18569;BME280;14780;48.316;-1.050;2023-05-18T01:58:43;100010.69;;;24.13;34.88
18569;BME280;14780;48.316;-1.050;2023-05-18T02:01:29;100018.88;;;24.13;34.84
18569;BME280;14780;48.316;-1.050;2023-05-18T02:04:13;100013.91;;;24.10;34.75
18569;BME280;14780;48.316;-1.050;2023-05-18T02:06:58;100024.84;;;24.10;34.78
18569;BME280;14780;48.316;-1.050;2023-05-18T02:09:43;100016.06;;;24.08;34.83
18569;BME280;14780;48.316;-1.050;2023-05-18T02:12:28;100022.88;;;24.06;34.96
18569;BME280;14780;48.316;-1.050;2023-05-18T02:15:12;100019.56;;;24.04;34.84
18569;BME280;14780;48.316;-1.050;2023-05-18T02:17:57;100011.28;;;23.99;34.93
18569;BME280;14780;48.316;-1.050;2023-05-18T02:20:41;100009.44;;;24.04;34.76
18569;BME280;14780;48.316;-1.050;2023-05-18T02:23:27;100011.59;;;24.02;34.93
18569;BME280;14780;48.316;-1.050;2023-05-18T02:26:12;100019.56;;;24.04;34.90
18569;BME280;14780;48.316;-1.050;2023-05-18T02:28:56;100026.34;;;24.01;34.85
18569;BME280;14780;48.316;-1.050;2023-05-18T02:31:41;100025.50;;;24.01;34.74
18569;BME280;14780;48.316;-1.050;2023-05-18T02:34:26;100018.41;;;24.00;34.85
18569;BME280;14780;48.316;-1.050;2023-05-18T02:37:11;100021.38;;;23.98;34.82
18569;BME280;14780;48.316;-1.050;2023-05-18T02:39:58;100022.44;;;23.97;34.77
18569;BME280;14780;48.316;-1.050;2023-05-18T02:42:42;100023.53;;;23.96;34.79
18569;BME280;14780;48.316;-1.050;2023-05-18T02:45:27;100021.03;;;23.95;34.89
18569;BME280;14780;48.316;-1.050;2023-05-18T02:48:11;100025.69;;;23.94;34.89
18569;BME280;14780;48.316;-1.050;2023-05-18T02:50:57;100026.78;;;23.93;34.85
18569;BME280;14780;48.316;-1.050;2023-05-18T02:53:42;100022.41;;;23.92;34.86
18569;BME280;14780;48.316;-1.050;2023-05-18T02:56:29;100010.63;;;23.92;34.88
18569;BME280;14780;48.316;-1.050;2023-05-18T02:59:16;100016.94;;;23.92;34.82
18569;BME280;14780;48.316;-1.050;2023-05-18T03:02:01;100020.16;;;23.89;34.83
18569;BME280;14780;48.316;-1.050;2023-05-18T03:04:45;100022.31;;;23.87;34.77
18569;BME280;14780;48.316;-1.050;2023-05-18T03:07:31;100017.66;;;23.88;34.76
18569;BME280;14780;48.316;-1.050;2023-05-18T03:10:20;100028.00;;;23.86;34.78
18569;BME280;14780;48.316;-1.050;2023-05-18T03:13:04;100021.72;;;23.85;34.74
18569;BME280;14780;48.316;-1.050;2023-05-18T03:15:49;100028.50;;;23.83;34.88
18569;BME280;14780;48.316;-1.050;2023-05-18T03:18:35;100026.00;;;23.81;34.85
18569;BME280;14780;48.316;-1.050;2023-05-18T03:21:20;100022.19;;;23.82;34.81
18569;BME280;14780;48.316;-1.050;2023-05-18T03:24:05;100018.88;;;23.80;34.73
18569;BME280;14780;48.316;-1.050;2023-05-18T03:26:50;100023.50;;;23.80;34.89
18569;BME280;14780;48.316;-1.050;2023-05-18T03:29:37;100019.41;;;23.77;34.89
18569;BME280;14780;48.316;-1.050;2023-05-18T03:32:22;100016.66;;;23.77;34.77
18569;BME280;14780;48.316;-1.050;2023-05-18T03:35:11;100018.78;;;23.75;34.80
18569;BME280;14780;48.316;-1.050;2023-05-18T03:37:56;100011.69;;;23.74;34.83
18569;BME280;14780;48.316;-1.050;2023-05-18T03:40:41;100011.91;;;23.73;34.83
18569;BME280;14780;48.316;-1.050;2023-05-18T03:43:26;100013.00;;;23.72;34.90
18569;BME280;14780;48.316;-1.050;2023-05-18T03:46:12;100013.28;;;23.70;34.80
18569;BME280;14780;48.316;-1.050;2023-05-18T03:48:57;100009.13;;;23.68;34.83
18569;BME280;14780;48.316;-1.050;2023-05-18T03:51:42;100016.25;;;23.69;34.76
18569;BME280;14780;48.316;-1.050;2023-05-18T03:54:26;100006.63;;;23.66;34.82
18569;BME280;14780;48.316;-1.050;2023-05-18T03:57:11;100003.91;;;23.66;34.78
18569;BME280;14780;48.316;-1.050;2023-05-18T03:59:56;99999.53;;;23.65;34.89
18569;BME280;14780;48.316;-1.050;2023-05-18T04:02:41;100008.78;;;23.64;34.80
18569;BME280;14780;48.316;-1.050;2023-05-18T04:05:26;100011.78;;;23.63;34.85
18569;BME280;14780;48.316;-1.050;2023-05-18T04:08:11;100005.47;;;23.62;34.82
18569;BME280;14780;48.316;-1.050;2023-05-18T04:10:59;100007.38;;;23.62;34.80
18569;BME280;14780;48.316;-1.050;2023-05-18T04:13:45;100006.53;;;23.61;34.78
18569;BME280;14780;48.316;-1.050;2023-05-18T04:16:29;100005.97;;;23.59;34.85
18569;BME280;14780;48.316;-1.050;2023-05-18T04:19:14;100003.25;;;23.59;34.88
18569;BME280;14780;48.316;-1.050;2023-05-18T04:21:59;100001.03;;;23.56;34.81
18569;BME280;14780;48.316;-1.050;2023-05-18T04:24:44;100000.19;;;23.56;34.95
18569;BME280;14780;48.316;-1.050;2023-05-18T04:27:32;100009.47;;;23.55;34.89
18569;BME280;14780;48.316;-1.050;2023-05-18T04:30:17;100001.50;;;23.53;34.97
18569;BME280;14780;48.316;-1.050;2023-05-18T04:33:02;100003.16;;;23.54;34.90
18569;BME280;14780;48.316;-1.050;2023-05-18T04:35:48;100006.16;;;23.53;35.00
18569;BME280;14780;48.316;-1.050;2023-05-18T04:38:33;100009.13;;;23.51;35.10
18569;BME280;14780;48.316;-1.050;2023-05-18T04:41:18;100005.81;;;23.49;35.13
18569;BME280;14780;48.316;-1.050;2023-05-18T04:44:06;100011.75;;;23.46;35.11
18569;BME280;14780;48.316;-1.050;2023-05-18T04:46:52;100003.97;;;23.38;35.08
18569;BME280;14780;48.316;-1.050;2023-05-18T04:49:37;100003.97;;;23.38;35.13
18569;BME280;14780;48.316;-1.050;2023-05-18T04:52:22;100005.06;;;23.38;35.18
18569;BME280;14780;48.316;-1.050;2023-05-18T04:55:07;100006.94;;;23.37;35.16
18569;BME280;14780;48.316;-1.050;2023-05-18T04:57:54;100006.59;;;23.33;35.11
18569;BME280;14780;48.316;-1.050;2023-05-18T05:00:44;100007.44;;;23.34;35.24
18569;BME280;14780;48.316;-1.050;2023-05-18T05:03:28;100008.28;;;23.35;35.08
18569;BME280;14780;48.316;-1.050;2023-05-18T05:06:13;100009.94;;;23.36;35.16
18569;BME280;14780;48.316;-1.050;2023-05-18T05:08:59;100018.13;;;23.36;35.12
18569;BME280;14780;48.316;-1.050;2023-05-18T05:11:43;100022.41;;;23.32;35.15
18569;BME280;14780;48.316;-1.050;2023-05-18T05:14:28;100018.03;;;23.31;35.14
18569;BME280;14780;48.316;-1.050;2023-05-18T05:17:13;100020.19;;;23.29;35.22
18569;BME280;14780;48.316;-1.050;2023-05-18T05:19:57;100021.28;;;23.28;35.24
18569;BME280;14780;48.316;-1.050;2023-05-18T05:22:42;100020.66;;;23.26;35.20
18569;BME280;14780;48.316;-1.050;2023-05-18T05:25:27;100028.06;;;23.25;35.17
18569;BME280;14780;48.316;-1.050;2023-05-18T05:28:12;100033.59;;;23.30;35.19
18569;BME280;14780;48.316;-1.050;2023-05-18T05:30:56;100032.53;;;23.31;35.05
18569;BME280;14780;48.316;-1.050;2023-05-18T05:33:42;100028.88;;;23.26;35.28
18569;BME280;14780;48.316;-1.050;2023-05-18T05:36:28;100027.94;;;23.20;35.34
18569;BME280;14780;48.316;-1.050;2023-05-18T05:39:13;100025.16;;;23.32;35.04
18569;BME280;14780;48.316;-1.050;2023-05-18T05:41:57;100028.72;;;23.32;35.00
18569;BME280;14780;48.316;-1.050;2023-05-18T05:44:42;100035.00;;;23.33;35.00
18569;BME280;14780;48.316;-1.050;2023-05-18T05:47:26;100035.28;;;23.31;35.01
18569;BME280;14780;48.316;-1.050;2023-05-18T05:50:11;100034.44;;;23.31;35.09
18569;BME280;14780;48.316;-1.050;2023-05-18T05:52:56;100039.88;;;23.31;35.02
18569;BME280;14780;48.316;-1.050;2023-05-18T05:55:40;100042.84;;;23.29;35.04
18569;BME280;14780;48.316;-1.050;2023-05-18T05:58:25;100036.59;;;23.29;35.13
18569;BME280;14780;48.316;-1.050;2023-05-18T06:01:09;100043.34;;;23.26;35.09
18569;BME280;14780;48.316;-1.050;2023-05-18T06:03:54;100035.16;;;23.26;35.14
18569;BME280;14780;48.316;-1.050;2023-05-18T06:06:39;100048.81;;;23.26;35.13
18569;BME280;14780;48.316;-1.050;2023-05-18T06:09:24;100036.25;;;23.25;35.05
18569;BME280;14780;48.316;-1.050;2023-05-18T06:12:09;100037.56;;;23.23;34.97
18569;BME280;14780;48.316;-1.050;2023-05-18T06:14:55;100041.09;;;23.23;35.07
18569;BME280;14780;48.316;-1.050;2023-05-18T06:17:42;100049.28;;;23.23;35.09
18569;BME280;14780;48.316;-1.050;2023-05-18T06:20:27;100042.19;;;23.22;35.14
18569;BME280;14780;48.316;-1.050;2023-05-18T06:23:12;100049.28;;;23.23;35.10
18569;BME280;14780;48.316;-1.050;2023-05-18T06:25:58;100045.19;;;23.21;35.14
18569;BME280;14780;48.316;-1.050;2023-05-18T06:28:43;100052.28;;;23.22;35.13
18569;BME280;14780;48.316;-1.050;2023-05-18T06:31:28;100056.09;;;23.21;35.24
18569;BME280;14780;48.316;-1.050;2023-05-18T06:34:12;100054.41;;;23.20;35.25
18569;BME280;14780;48.316;-1.050;2023-05-18T06:36:57;100046.50;;;23.18;35.26
18569;BME280;14780;48.316;-1.050;2023-05-18T06:39:42;100048.84;;;23.15;35.37
18569;BME280;14780;48.316;-1.050;2023-05-18T06:42:27;100053.09;;;23.22;35.10
18569;BME280;14780;48.316;-1.050;2023-05-18T06:45:12;100048.47;;;23.23;35.16
18569;BME280;14780;48.316;-1.050;2023-05-18T06:47:57;100054.75;;;23.23;35.23
18569;BME280;14780;48.316;-1.050;2023-05-18T06:50:41;100052.28;;;23.22;35.16
18569;BME280;14780;48.316;-1.050;2023-05-18T06:53:26;100055.03;;;23.22;35.23
18569;BME280;14780;48.316;-1.050;2023-05-18T06:56:12;100054.19;;;23.21;35.24
18569;BME280;14780;48.316;-1.050;2023-05-18T06:58:56;100059.88;;;23.20;35.29
18569;BME280;14780;48.316;-1.050;2023-05-18T07:01:41;100061.22;;;23.17;35.36
18569;BME280;14780;48.316;-1.050;2023-05-18T07:04:25;100060.59;;;23.15;35.44
18569;BME280;14780;48.316;-1.050;2023-05-18T07:07:10;100060.94;;;23.19;35.19
18569;BME280;14780;48.316;-1.050;2023-05-18T07:09:55;100062.59;;;23.20;35.33
18569;BME280;14780;48.316;-1.050;2023-05-18T07:12:40;100063.69;;;23.19;35.37
18569;BME280;14780;48.316;-1.050;2023-05-18T07:15:25;100052.75;;;23.19;35.32
18569;BME280;14780;48.316;-1.050;2023-05-18T07:18:10;100054.41;;;23.20;35.33
18569;BME280;14780;48.316;-1.050;2023-05-18T07:20:54;100047.28;;;23.19;35.30
18569;BME280;14780;48.316;-1.050;2023-05-18T07:23:39;100057.41;;;23.18;35.38
18569;BME280;14780;48.316;-1.050;2023-05-18T07:26:24;100053.84;;;23.18;35.36
18569;BME280;14780;48.316;-1.050;2023-05-18T07:29:09;100054.91;;;23.17;35.50
18569;BME280;14780;48.316;-1.050;2023-05-18T07:31:54;100048.66;;;23.16;35.48
18569;BME280;14780;48.316;-1.050;2023-05-18T07:34:39;100048.94;;;23.20;35.47
18569;BME280;14780;48.316;-1.050;2023-05-18T07:37:25;100049.56;;;23.22;35.47
18569;BME280;14780;48.316;-1.050;2023-05-18T07:40:10;100064.88;;;23.23;35.47
18569;BME280;14780;48.316;-1.050;2023-05-18T07:42:56;100056.66;;;23.23;35.47
18569;BME280;14780;48.316;-1.050;2023-05-18T07:45:41;100067.59;;;23.23;35.42
18569;BME280;14780;48.316;-1.050;2023-05-18T07:48:25;100070.78;;;23.20;35.50
18569;BME280;14780;48.316;-1.050;2023-05-18T07:51:10;100063.69;;;23.19;35.52
18569;BME280;14780;48.316;-1.050;2023-05-18T07:53:55;100061.06;;;23.24;35.54
18569;BME280;14780;48.316;-1.050;2023-05-18T07:56:41;100062.72;;;23.25;35.49
18569;BME280;14780;48.316;-1.050;2023-05-18T07:59:27;100062.72;;;23.25;35.56
18569;BME280;14780;48.316;-1.050;2023-05-18T08:02:11;100061.63;;;23.26;35.54
18569;BME280;14780;48.316;-1.050;2023-05-18T08:04:56;100057.25;;;23.25;35.63
18569;BME280;14780;48.316;-1.050;2023-05-18T08:07:41;100056.66;;;23.23;35.63
18569;BME280;14780;48.316;-1.050;2023-05-18T08:10:26;100058.31;;;23.24;35.53
18569;BME280;14780;48.316;-1.050;2023-05-18T08:13:10;100050.97;;;23.24;35.53
18569;BME280;14780;48.316;-1.050;2023-05-18T08:15:56;100050.38;;;23.22;35.54
18569;BME280;14780;48.316;-1.050;2023-05-18T08:18:40;100050.38;;;23.22;35.62
18569;BME280;14780;48.316;-1.050;2023-05-18T08:21:25;100057.75;;;23.22;35.58
18569;BME280;14780;48.316;-1.050;2023-05-18T08:24:11;100050.63;;;23.21;35.64
18569;BME280;14780;48.316;-1.050;2023-05-18T08:26:56;100054.41;;;23.20;35.61
18569;BME280;14780;48.316;-1.050;2023-05-18T08:29:41;100049.22;;;23.18;35.63
18569;BME280;14780;48.316;-1.050;2023-05-18T08:32:25;100041.03;;;23.18;35.67
18569;BME280;14780;48.316;-1.050;2023-05-18T08:35:11;100045.19;;;23.21;35.60
18569;BME280;14780;48.316;-1.050;2023-05-18T08:37:55;100045.19;;;23.21;35.65
18569;BME280;14780;48.316;-1.050;2023-05-18T08:40:55;100052.97;;;23.29;35.53
18569;BME280;14780;48.316;-1.050;2023-05-18T08:43:45;100050.13;;;23.24;35.65
18569;BME280;14780;48.316;-1.050;2023-05-18T08:46:34;100051.44;;;23.21;35.77
18569;BME280;14780;48.316;-1.050;2023-05-18T08:49:23;100056.66;;;23.23;35.78
18569;BME280;14780;48.316;-1.050;2023-05-18T08:52:12;100056.66;;;23.23;35.74
18569;BME280;14780;48.316;-1.050;2023-05-18T08:55:04;100053.94;;;23.23;35.73
18569;BME280;14780;48.316;-1.050;2023-05-18T08:57:53;100057.97;;;23.20;35.89
18569;BME280;14780;48.316;-1.050;2023-05-18T09:00:41;100055.25;;;23.20;35.81
18569;BME280;14780;48.316;-1.050;2023-05-18T09:03:26;100054.19;;;23.21;35.86
18569;BME280;14780;48.316;-1.050;2023-05-18T09:06:12;100053.94;;;23.23;35.90
18569;BME280;14780;48.316;-1.050;2023-05-18T09:09:00;100052.03;;;23.23;35.96
18569;BME280;14780;48.316;-1.050;2023-05-18T09:11:47;100052.03;;;23.23;35.83
18569;BME280;14780;48.316;-1.050;2023-05-18T09:14:33;100047.97;;;23.26;35.96
18569;BME280;14780;48.316;-1.050;2023-05-18T09:17:18;100049.63;;;23.27;36.01
18569;BME280;14780;48.316;-1.050;2023-05-18T09:20:03;100036.81;;;23.27;36.13
18569;BME280;14780;48.316;-1.050;2023-05-18T09:22:51;100047.50;;;23.29;36.18
18569;BME280;14780;48.316;-1.050;2023-05-18T09:25:43;100040.72;;;23.31;36.13
18569;BME280;14780;48.316;-1.050;2023-05-18T09:28:35;100033.91;;;23.33;36.06
18569;BME280;14780;48.316;-1.050;2023-05-18T09:31:21;100035.00;;;23.33;36.14
18569;BME280;14780;48.316;-1.050;2023-05-18T09:34:07;100031.19;;;23.33;36.21
18569;BME280;14780;48.316;-1.050;2023-05-18T09:36:53;100030.13;;;23.35;36.24
18569;BME280;14780;48.316;-1.050;2023-05-18T09:39:38;100025.50;;;23.35;36.19
18569;BME280;14780;48.316;-1.050;2023-05-18T09:42:44;100029.88;;;23.36;36.16
18569;BME280;14780;48.316;-1.050;2023-05-18T09:45:29;100032.59;;;23.36;36.19
18569;BME280;14780;48.316;-1.050;2023-05-18T09:48:15;100035.00;;;23.33;36.32
18569;BME280;14780;48.316;-1.050;2023-05-18T09:51:00;100035.97;;;23.27;36.52
18569;BME280;14780;48.316;-1.050;2023-05-18T09:54:03;100033.72;;;23.51;36.11
18569;BME280;14780;48.316;-1.050;2023-05-18T09:56:49;100037.19;;;23.47;36.29
18569;BME280;14780;48.316;-1.050;2023-05-18T09:59:35;100032.28;;;23.49;36.28
18569;BME280;14780;48.316;-1.050;2023-05-18T10:02:20;100028.47;;;23.50;36.21
18569;BME280;14780;48.316;-1.050;2023-05-18T10:08:03;100036.78;;;23.55;36.23
18569;BME280;14780;48.316;-1.050;2023-05-18T10:10:49;100039.50;;;23.55;36.28
18569;BME280;14780;48.316;-1.050;2023-05-18T10:13:34;100034.63;;;23.57;36.34
18569;BME280;14780;48.316;-1.050;2023-05-18T10:16:19;100028.06;;;23.58;36.38
18569;BME280;14780;48.316;-1.050;2023-05-18T10:19:08;100027.00;;;23.59;36.25
18569;BME280;14780;48.316;-1.050;2023-05-18T10:21:54;100025.66;;;23.61;36.26
18569;BME280;14780;48.316;-1.050;2023-05-18T10:24:44;100027.31;;;23.62;36.40
18569;BME280;14780;48.316;-1.050;2023-05-18T10:27:29;100024.09;;;23.65;36.36
18569;BME280;14780;48.316;-1.050;2023-05-18T10:30:17;100028.50;;;23.66;36.43
18569;BME280;14780;48.316;-1.050;2023-05-18T10:33:03;100030.16;;;23.67;36.44
18569;BME280;14780;48.316;-1.050;2023-05-18T10:35:49;100035.63;;;23.67;36.35
18569;BME280;14780;48.316;-1.050;2023-05-18T10:38:36;100038.91;;;23.69;36.36
18569;BME280;14780;48.316;-1.050;2023-05-18T10:41:23;100031.31;;;23.71;36.45
18569;BME280;14780;48.316;-1.050;2023-05-18T10:44:09;100029.16;;;23.73;36.40
18569;BME280;14780;48.316;-1.050;2023-05-18T10:46:55;100021.81;;;23.74;36.47
18569;BME280;14780;48.316;-1.050;2023-05-18T10:49:41;100027.84;;;23.76;36.41
18569;BME280;14780;48.316;-1.050;2023-05-18T10:52:26;100023.19;;;23.76;36.48
18569;BME280;14780;48.316;-1.050;2023-05-18T10:55:15;100024.03;;;23.77;36.42
18569;BME280;14780;48.316;-1.050;2023-05-18T10:58:06;100017.22;;;23.79;36.47
18569;BME280;14780;48.316;-1.050;2023-05-18T11:00:53;100021.38;;;23.98;36.10
18569;BME280;14780;48.316;-1.050;2023-05-18T11:03:39;100018.38;;;23.83;36.54
18569;BME280;14780;48.316;-1.050;2023-05-18T11:06:25;100012.91;;;23.83;36.60
18569;BME280;14780;48.316;-1.050;2023-05-18T11:09:22;100005.41;;;23.90;36.55
18569;BME280;14780;48.316;-1.050;2023-05-18T11:12:12;100014.91;;;23.88;36.54
18569;BME280;14780;48.316;-1.050;2023-05-18T11:14:57;100009.44;;;23.88;36.61
18569;BME280;14780;48.316;-1.050;2023-05-18T11:17:43;100011.13;;;23.89;36.61
18569;BME280;14780;48.316;-1.050;2023-05-18T11:20:27;100007.56;;;23.88;36.68
18569;BME280;14780;48.316;-1.050;2023-05-18T11:23:12;100003.75;;;23.89;36.67
18569;BME280;14780;48.316;-1.050;2023-05-18T11:26:00;99997.78;;;23.92;36.72
18569;BME280;14780;48.316;-1.050;2023-05-18T11:28:51;100001.66;;;23.96;36.73
18569;BME280;14780;48.316;-1.050;2023-05-18T11:31:52;100006.66;;;23.99;36.62
18569;BME280;14780;48.316;-1.050;2023-05-18T11:34:45;100002.56;;;24.02;36.72
18569;BME280;14780;48.316;-1.050;2023-05-18T11:40:48;100001.84;;;24.06;36.70
18569;BME280;14780;48.316;-1.050;2023-05-18T11:43:33;99997.38;;;24.00;36.80
18569;BME280;14780;48.316;-1.050;2023-05-18T11:46:20;100000.91;;;24.01;36.79
18569;BME280;14780;48.316;-1.050;2023-05-18T11:49:07;100004.72;;;24.00;36.85
18569;BME280;14780;48.316;-1.050;2023-05-18T11:55:04;100000.41;;;24.04;37.00
18569;BME280;14780;48.316;-1.050;2023-05-18T11:57:51;99998.78;;;24.03;37.03
18569;BME280;14780;48.316;-1.050;2023-05-18T12:00:37;100002.31;;;24.03;36.96
18569;BME280;14780;48.316;-1.050;2023-05-18T12:03:23;99996.84;;;24.03;37.01
18569;BME280;14780;48.316;-1.050;2023-05-18T12:06:09;100003.41;;;24.02;36.95
18569;BME280;14780;48.316;-1.050;2023-05-18T12:08:55;99999.81;;;24.02;37.10
18569;BME280;14780;48.316;-1.050;2023-05-18T12:11:40;100002.56;;;24.02;37.19
18569;BME280;14780;48.316;-1.050;2023-05-18T12:14:26;99993.53;;;24.01;36.99
18569;BME280;14780;48.316;-1.050;2023-05-18T12:17:11;99989.72;;;24.02;37.09
18569;BME280;14780;48.316;-1.050;2023-05-18T12:19:55;99983.41;;;24.02;36.98
18569;BME280;14780;48.316;-1.050;2023-05-18T12:22:45;99987.56;;;24.04;37.09
18569;BME280;14780;48.316;-1.050;2023-05-18T12:25:30;99985.44;;;24.06;37.05
18569;BME280;14780;48.316;-1.050;2023-05-18T12:28:15;99981.34;;;24.09;37.16
18569;BME280;14780;48.316;-1.050;2023-05-18T12:31:03;99973.44;;;24.12;37.06
18569;BME280;14780;48.316;-1.050;2023-05-18T12:33:52;99968.59;;;24.14;37.21
18569;BME280;14780;48.316;-1.050;2023-05-18T12:36:53;99969.78;;;24.23;37.03
18569;BME280;14780;48.316;-1.050;2023-05-18T12:39:38;99966.97;;;24.18;37.12
18569;BME280;14780;48.316;-1.050;2023-05-18T12:42:22;99961.50;;;24.18;37.09
18569;BME280;14780;48.316;-1.050;2023-05-18T12:45:08;99957.44;;;24.21;37.14
18569;BME280;14780;48.316;-1.050;2023-05-18T12:47:54;99958.00;;;24.23;37.20
18569;BME280;14780;48.316;-1.050;2023-05-18T12:50:49;99948.31;;;24.32;37.03
18569;BME280;14780;48.316;-1.050;2023-05-18T12:53:43;99946.38;;;24.32;37.13
18569;BME280;14780;48.316;-1.050;2023-05-18T12:56:48;99942.09;;;24.41;37.08
18569;BME280;14780;48.316;-1.050;2023-05-18T12:59:35;99934.94;;;24.35;37.19
18569;BME280;14780;48.316;-1.050;2023-05-18T13:02:33;99940.97;;;24.37;37.19
18569;BME280;14780;48.316;-1.050;2023-05-18T13:05:23;99936.91;;;24.40;37.22
18569;BME280;14780;48.316;-1.050;2023-05-18T13:08:08;99937.16;;;24.38;37.31
18569;BME280;14780;48.316;-1.050;2023-05-18T13:11:03;99939.38;;;24.41;37.15
18569;BME280;14780;48.316;-1.050;2023-05-18T13:13:59;99936.69;;;24.46;37.09
18569;BME280;14780;48.316;-1.050;2023-05-18T13:16:45;99933.41;;;24.44;37.13
18569;BME280;14780;48.316;-1.050;2023-05-18T13:19:34;99925.75;;;24.46;36.99
18569;BME280;14780;48.316;-1.050;2023-05-18T13:22:20;99930.16;;;24.47;37.01
18569;BME280;14780;48.316;-1.050;2023-05-18T13:25:05;99926.31;;;24.48;37.15
18569;BME280;14780;48.316;-1.050;2023-05-18T13:27:51;99926.91;;;24.50;37.00
18569;BME280;14780;48.316;-1.050;2023-05-18T13:30:39;99923.41;;;24.55;37.21
18569;BME280;14780;48.316;-1.050;2023-05-18T13:33:24;99913.91;;;24.57;36.93
18569;BME280;14780;48.316;-1.050;2023-05-18T13:36:08;99913.63;;;24.59;36.96
18569;BME280;14780;48.316;-1.050;2023-05-18T13:38:53;99914.69;;;24.58;36.92
18569;BME280;14780;48.316;-1.050;2023-05-18T13:41:38;99911.16;;;24.57;37.06
18569;BME280;14780;48.316;-1.050;2023-05-18T13:44:23;99912.81;;;24.58;36.97
18569;BME280;14780;48.316;-1.050;2023-05-18T13:47:08;99902.41;;;24.60;37.04
18569;BME280;14780;48.316;-1.050;2023-05-18T13:49:53;99900.25;;;24.62;36.92
18569;BME280;14780;48.316;-1.050;2023-05-18T13:52:37;99897.00;;;24.65;36.94
18569;BME280;14780;48.316;-1.050;2023-05-18T13:55:23;99889.13;;;24.69;36.87
18569;BME280;14780;48.316;-1.050;2023-05-18T13:58:07;99890.22;;;24.73;36.98
18569;BME280;14780;48.316;-1.050;2023-05-18T14:00:52;99891.31;;;24.72;36.89
18569;BME280;14780;48.316;-1.050;2023-05-18T14:03:38;99892.97;;;24.73;36.89
18569;BME280;14780;48.316;-1.050;2023-05-18T14:06:24;99887.78;;;24.71;36.92
18569;BME280;14780;48.316;-1.050;2023-05-18T14:09:10;99895.69;;;24.73;36.95
18569;BME280;14780;48.316;-1.050;2023-05-18T14:11:55;99889.72;;;24.76;36.90
18569;BME280;14780;48.316;-1.050;2023-05-18T14:14:40;99888.38;;;24.78;36.79
18569;BME280;14780;48.316;-1.050;2023-05-18T14:17:26;99883.47;;;24.80;36.88
18569;BME280;14780;48.316;-1.050;2023-05-18T14:20:13;99892.00;;;24.84;36.90
18569;BME280;14780;48.316;-1.050;2023-05-18T14:22:57;99891.16;;;24.83;36.71
18569;BME280;14780;48.316;-1.050;2023-05-18T14:25:44;99889.50;;;24.82;36.78
18569;BME280;14780;48.316;-1.050;2023-05-18T14:28:29;99887.59;;;24.83;36.70
18569;BME280;14780;48.316;-1.050;2023-05-18T14:31:14;99880.78;;;24.85;36.73
18569;BME280;14780;48.316;-1.050;2023-05-18T14:33:59;99878.63;;;24.87;36.70
18569;BME280;14780;48.316;-1.050;2023-05-18T14:36:44;99875.88;;;24.87;36.79
18569;BME280;14780;48.316;-1.050;2023-05-18T14:39:29;99873.13;;;24.87;36.81